createdAt,value
2023-03-20T00:00:00.233Z,24.9000
2023-03-20T00:00:11.311Z,24.9000
2023-03-20T00:00:22.384Z,24.9000
2023-03-20T00:00:33.420Z,24.8900
2023-03-20T00:00:44.483Z,24.8900
2023-03-20T00:00:55.558Z,24.8900
2023-03-20T00:01:06.622Z,24.8900
2023-03-20T00:01:17.687Z,24.8900
2023-03-20T00:01:28.734Z,24.9000
2023-03-20T00:01:39.799Z,24.9000
2023-03-20T00:01:50.870Z,24.9000
2023-03-20T00:02:01.936Z,24.9000
2023-03-20T00:02:13.001Z,24.9100
2023-03-20T00:02:24.063Z,24.9100
2023-03-20T00:02:35.126Z,24.9100
2023-03-20T00:02:46.171Z,24.9200
2023-03-20T00:02:57.236Z,24.9100
2023-03-20T00:03:08.284Z,24.9100
2023-03-20T00:03:19.367Z,24.9100
2023-03-20T00:03:30.463Z,24.9100
2023-03-20T00:03:41.569Z,24.9200
2023-03-20T00:03:52.717Z,24.9200
2023-03-20T00:04:03.786Z,24.9100
2023-03-20T00:04:15.037Z,24.9100
2023-03-20T00:04:26.424Z,24.9100
2023-03-20T00:04:37.520Z,24.9100
2023-03-20T00:04:48.661Z,24.9100
2023-03-20T00:04:59.885Z,24.9100
2023-03-20T00:05:10.941Z,24.9100
2023-03-20T00:05:22.043Z,24.9000
2023-03-20T00:05:33.117Z,24.9000
2023-03-20T00:05:44.189Z,24.9000
2023-03-20T00:05:55.268Z,24.9100
2023-03-20T00:06:06.304Z,24.9000
2023-03-20T00:06:17.389Z,24.9100
2023-03-20T00:06:28.460Z,24.9100
2023-03-20T00:06:39.544Z,24.9000
2023-03-20T00:06:50.629Z,24.9000
2023-03-20T00:07:01.777Z,24.9100
2023-03-20T00:07:12.825Z,24.9000
2023-03-20T00:07:23.876Z,24.9100
2023-03-20T00:07:34.954Z,24.9100
2023-03-20T00:07:46.028Z,24.9100
2023-03-20T00:07:57.095Z,24.9100
2023-03-20T00:08:08.142Z,24.9100
2023-03-20T00:08:19.164Z,24.9200
2023-03-20T00:08:30.211Z,24.9200
2023-03-20T00:08:41.245Z,24.9200
2023-03-20T00:08:53.288Z,24.9300
2023-03-20T00:09:07.552Z,24.9200
2023-03-20T00:09:18.850Z,24.9200
2023-03-20T00:09:29.915Z,24.9000
2023-03-20T00:09:40.990Z,24.9000
2023-03-20T00:09:52.050Z,24.9100
2023-03-20T00:10:03.134Z,24.9100
2023-03-20T00:10:14.166Z,24.9100
2023-03-20T00:10:25.223Z,24.9200
2023-03-20T00:10:36.268Z,24.9200
2023-03-20T00:10:47.331Z,24.9200
2023-03-20T00:10:58.348Z,24.9200
2023-03-20T00:11:09.417Z,24.9200
2023-03-20T00:11:20.474Z,24.9200
2023-03-20T00:11:31.534Z,24.9200
2023-03-20T00:11:42.613Z,24.9200
2023-03-20T00:11:53.645Z,24.9100
2023-03-20T00:12:04.723Z,24.9200
2023-03-20T00:12:15.770Z,24.9100
2023-03-20T00:12:26.832Z,24.9100
2023-03-20T00:12:37.897Z,24.9100
2023-03-20T00:12:48.929Z,24.9100
2023-03-20T00:13:00.007Z,24.9100
2023-03-20T00:13:11.078Z,24.9100
2023-03-20T00:13:22.138Z,24.9100
2023-03-20T00:13:33.232Z,24.9100
2023-03-20T00:13:44.282Z,24.9000
2023-03-20T00:13:55.378Z,24.9000
2023-03-20T00:14:06.448Z,24.9000
2023-03-20T00:14:17.496Z,24.9000
2023-03-20T00:14:28.574Z,24.9100
2023-03-20T00:14:39.628Z,24.9100
2023-03-20T00:14:50.682Z,24.9100
2023-03-20T00:15:01.741Z,24.9000
2023-03-20T00:15:12.775Z,24.9000
2023-03-20T00:15:23.828Z,24.9100
2023-03-20T00:15:35.145Z,24.9100
2023-03-20T00:15:46.410Z,24.9100
2023-03-20T00:15:57.500Z,24.9100
2023-03-20T00:16:08.552Z,24.9200
2023-03-20T00:16:19.687Z,24.9200
2023-03-20T00:16:30.788Z,24.9200
2023-03-20T00:16:41.862Z,24.9300
2023-03-20T00:16:52.970Z,24.9300
2023-03-20T00:17:03.997Z,24.9300
2023-03-20T00:17:15.047Z,24.9300
2023-03-20T00:17:26.115Z,24.9300
2023-03-20T00:17:37.178Z,24.9300
2023-03-20T00:17:48.254Z,24.9300
2023-03-20T00:17:59.369Z,24.9300
2023-03-20T00:18:10.431Z,24.9300
2023-03-20T00:18:21.543Z,24.9300
2023-03-20T00:18:32.603Z,24.9300
2023-03-20T00:18:43.662Z,24.9300
2023-03-20T00:18:54.732Z,24.9300
2023-03-20T00:19:05.803Z,24.9300
2023-03-20T00:19:16.863Z,24.9200
2023-03-20T00:19:27.942Z,24.9200
2023-03-20T00:19:38.991Z,24.9200
2023-03-20T00:19:50.050Z,24.9200
2023-03-20T00:20:01.099Z,24.9200
2023-03-20T00:20:12.145Z,24.9200
2023-03-20T00:20:23.197Z,24.9300
2023-03-20T00:20:34.556Z,24.9300
2023-03-20T00:20:45.878Z,24.9300
2023-03-20T00:20:56.932Z,24.9200
2023-03-20T00:21:08.022Z,24.9200
2023-03-20T00:21:19.070Z,24.9200
2023-03-20T00:21:30.132Z,24.9200
2023-03-20T00:21:41.217Z,24.9300
2023-03-20T00:21:52.267Z,24.9300
2023-03-20T00:22:03.319Z,24.9300
2023-03-20T00:22:14.386Z,24.9300
2023-03-20T00:22:25.446Z,24.9300
2023-03-20T00:22:36.504Z,24.9400
2023-03-20T00:22:47.583Z,24.9400
2023-03-20T00:22:58.678Z,24.9400
2023-03-20T00:23:09.734Z,24.9400
2023-03-20T00:23:20.810Z,24.9400
2023-03-20T00:23:31.848Z,24.9400
2023-03-20T00:23:42.911Z,24.9400
2023-03-20T00:23:53.969Z,24.9400
2023-03-20T00:24:05.049Z,24.9400
2023-03-20T00:24:16.133Z,24.9400
2023-03-20T00:24:27.166Z,24.9400
2023-03-20T00:24:38.244Z,24.9300
2023-03-20T00:24:49.311Z,24.9300
2023-03-20T00:25:00.358Z,24.9300
2023-03-20T00:25:11.430Z,24.9300
2023-03-20T00:25:22.508Z,24.9200
2023-03-20T00:25:33.977Z,24.9200
2023-03-20T00:25:45.400Z,24.9200
2023-03-20T00:25:56.485Z,24.9100
2023-03-20T00:26:07.524Z,24.9100
2023-03-20T00:26:18.593Z,24.9100
2023-03-20T00:26:29.652Z,24.9200
2023-03-20T00:26:40.695Z,24.9200
2023-03-20T00:26:51.801Z,24.9200
2023-03-20T00:27:02.872Z,24.9200
2023-03-20T00:27:13.917Z,24.9300
2023-03-20T00:27:24.990Z,24.9200
2023-03-20T00:27:36.046Z,24.9200
2023-03-20T00:27:47.120Z,24.9200
2023-03-20T00:27:58.194Z,24.9200
2023-03-20T00:28:09.232Z,24.9200
2023-03-20T00:28:20.302Z,24.9200
2023-03-20T00:28:31.337Z,24.9200
2023-03-20T00:28:42.395Z,24.9200
2023-03-20T00:28:53.532Z,24.9200
2023-03-20T00:29:04.590Z,24.9200
2023-03-20T00:29:15.632Z,24.9200
2023-03-20T00:29:26.771Z,24.9200
2023-03-20T00:29:37.800Z,24.9200
2023-03-20T00:29:48.886Z,24.9200
2023-03-20T00:29:59.927Z,24.9200
2023-03-20T00:30:10.996Z,24.9200
2023-03-20T00:30:22.056Z,24.9100
2023-03-20T00:30:33.134Z,24.9200
2023-03-20T00:30:44.170Z,24.9200
2023-03-20T00:30:55.212Z,24.9200
2023-03-20T00:31:06.374Z,24.9200
2023-03-20T00:31:17.434Z,24.9300
2023-03-20T00:31:28.511Z,24.9300
2023-03-20T00:31:39.702Z,24.9300
2023-03-20T00:31:50.879Z,24.9300
2023-03-20T00:32:01.925Z,24.9300
2023-03-20T00:32:13.025Z,24.9300
2023-03-20T00:32:24.091Z,24.9300
2023-03-20T00:32:35.228Z,24.9300
2023-03-20T00:32:46.330Z,24.9300
2023-03-20T00:32:57.437Z,24.9300
2023-03-20T00:33:08.527Z,24.9200
2023-03-20T00:33:19.572Z,24.9300
2023-03-20T00:33:30.653Z,24.9300
2023-03-20T00:33:41.724Z,24.9200
2023-03-20T00:33:52.792Z,24.9200
2023-03-20T00:34:03.855Z,24.9200
2023-03-20T00:34:14.881Z,24.9200
2023-03-20T00:34:26.009Z,24.9200
2023-03-20T00:34:37.081Z,24.9200
2023-03-20T00:34:48.151Z,24.9200
2023-03-20T00:34:59.194Z,24.9200
2023-03-20T00:35:10.272Z,24.9200
2023-03-20T00:35:21.343Z,24.9200
2023-03-20T00:35:32.444Z,24.9200
2023-03-20T00:35:43.513Z,24.9200
2023-03-20T00:35:54.617Z,24.9200
2023-03-20T00:36:05.740Z,24.9200
2023-03-20T00:36:16.821Z,24.9200
2023-03-20T00:36:27.886Z,24.9200
2023-03-20T00:36:38.932Z,24.9200
2023-03-20T00:36:49.980Z,24.9200
2023-03-20T00:37:01.049Z,24.9200
2023-03-20T00:37:12.137Z,24.9200
2023-03-20T00:37:23.175Z,24.9200
2023-03-20T00:37:34.230Z,24.9200
2023-03-20T00:37:45.309Z,24.9200
2023-03-20T00:37:56.372Z,24.9200
2023-03-20T00:38:07.477Z,24.9200
2023-03-20T00:38:19.000Z,24.9200
2023-03-20T00:38:30.067Z,24.9200
2023-03-20T00:38:41.152Z,24.9200
2023-03-20T00:38:52.208Z,24.9200
2023-03-20T00:39:03.254Z,24.9200
2023-03-20T00:39:14.348Z,24.9200
2023-03-20T00:39:25.431Z,24.9300
2023-03-20T00:39:36.460Z,24.9300
2023-03-20T00:39:47.572Z,24.9300
2023-03-20T00:39:58.605Z,24.9300
2023-03-20T00:40:09.691Z,24.9300
2023-03-20T00:40:20.724Z,24.9300
2023-03-20T00:40:31.789Z,24.9300
2023-03-20T00:40:42.860Z,24.9300
2023-03-20T00:40:53.961Z,24.9300
2023-03-20T00:41:05.019Z,24.9300
2023-03-20T00:41:16.094Z,24.9300
2023-03-20T00:41:27.133Z,24.9300
2023-03-20T00:41:38.197Z,24.9300
2023-03-20T00:41:49.230Z,24.9300
2023-03-20T00:42:00.292Z,24.9400
2023-03-20T00:42:11.370Z,24.9400
2023-03-20T00:42:22.502Z,24.9400
2023-03-20T00:42:33.528Z,24.9400
2023-03-20T00:42:44.580Z,24.9400
2023-03-20T00:42:55.637Z,24.9400
2023-03-20T00:43:06.702Z,24.9400
2023-03-20T00:43:17.764Z,24.9400
2023-03-20T00:43:28.824Z,24.9400
2023-03-20T00:43:39.897Z,24.9400
2023-03-20T00:43:50.956Z,24.9400
2023-03-20T00:44:02.013Z,24.9400
2023-03-20T00:44:13.080Z,24.9400
2023-03-20T00:44:24.126Z,24.9400
2023-03-20T00:44:35.208Z,24.9400
2023-03-20T00:44:46.276Z,24.9400
2023-03-20T00:44:57.381Z,24.9400
2023-03-20T00:45:08.408Z,24.9400
2023-03-20T00:45:19.504Z,24.9300
2023-03-20T00:45:30.558Z,24.9300
2023-03-20T00:45:41.604Z,24.9300
2023-03-20T00:45:52.709Z,24.9300
2023-03-20T00:46:03.799Z,24.9400
2023-03-20T00:46:14.874Z,24.9400
2023-03-20T00:46:25.988Z,24.9400
2023-03-20T00:46:37.066Z,24.9400
2023-03-20T00:46:48.234Z,24.9400
2023-03-20T00:46:59.415Z,24.9400
2023-03-20T00:47:10.494Z,24.9400
2023-03-20T00:47:21.566Z,24.9400
2023-03-20T00:47:32.606Z,24.9400
2023-03-20T00:47:43.682Z,24.9400
2023-03-20T00:47:54.764Z,24.9400
2023-03-20T00:48:05.807Z,24.9400
2023-03-20T00:48:16.877Z,24.9400
2023-03-20T00:48:27.946Z,24.9400
2023-03-20T00:48:39.014Z,24.9400
2023-03-20T00:48:50.075Z,24.9400
2023-03-20T00:49:01.125Z,24.9400
2023-03-20T00:49:12.222Z,24.9400
2023-03-20T00:49:23.262Z,24.9400
2023-03-20T00:49:34.299Z,24.9400
2023-03-20T00:49:45.352Z,24.9300
2023-03-20T00:49:56.413Z,24.9300
2023-03-20T00:50:07.488Z,24.9300
2023-03-20T00:50:18.552Z,24.9300
2023-03-20T00:50:29.602Z,24.9300
2023-03-20T00:50:40.671Z,24.9300
2023-03-20T00:50:51.737Z,24.9300
2023-03-20T00:51:02.829Z,24.9300
2023-03-20T00:51:13.887Z,24.9300
2023-03-20T00:51:24.929Z,24.9200
2023-03-20T00:51:35.991Z,24.9300
2023-03-20T00:51:47.049Z,24.9300
2023-03-20T00:51:58.369Z,24.9300
2023-03-20T00:52:09.732Z,24.9400
2023-03-20T00:52:20.787Z,24.9400
2023-03-20T00:52:31.872Z,24.9400
2023-03-20T00:52:42.912Z,24.9400
2023-03-20T00:52:53.968Z,24.9400
2023-03-20T00:53:05.040Z,24.9400
2023-03-20T00:53:16.087Z,24.9400
2023-03-20T00:53:27.144Z,24.9300
2023-03-20T00:53:38.202Z,24.9300
2023-03-20T00:53:49.244Z,24.9400
2023-03-20T00:54:00.329Z,24.9400
2023-03-20T00:54:11.401Z,24.9400
2023-03-20T00:54:22.467Z,24.9400
2023-03-20T00:54:33.563Z,24.9400
2023-03-20T00:54:44.639Z,24.9400
2023-03-20T00:54:55.657Z,24.9400
2023-03-20T00:55:06.741Z,24.9400
2023-03-20T00:55:17.815Z,24.9400
2023-03-20T00:55:28.943Z,24.9400
2023-03-20T00:55:40.031Z,24.9500
2023-03-20T00:55:51.117Z,24.9500
2023-03-20T00:56:02.172Z,24.9500
2023-03-20T00:56:13.252Z,24.9500
2023-03-20T00:56:24.319Z,24.9500
2023-03-20T00:56:35.392Z,24.9500
2023-03-20T00:56:46.448Z,24.9500
2023-03-20T00:56:57.491Z,24.9500
2023-03-20T00:57:08.556Z,24.9400
2023-03-20T00:57:19.617Z,24.9400
2023-03-20T00:57:30.639Z,24.9400
2023-03-20T00:57:41.702Z,24.9300
2023-03-20T00:57:52.743Z,24.9400
2023-03-20T00:58:03.850Z,24.9400
2023-03-20T00:58:14.898Z,24.9400
2023-03-20T00:58:25.993Z,24.9400
2023-03-20T00:58:37.044Z,24.9400
2023-03-20T00:58:48.112Z,24.9400
2023-03-20T00:58:59.167Z,24.9400
2023-03-20T00:59:10.210Z,24.9400
2023-03-20T00:59:21.274Z,24.9400
2023-03-20T00:59:32.315Z,24.9400
2023-03-20T00:59:43.392Z,24.9400
2023-03-20T00:59:54.456Z,24.9400
2023-03-20T01:00:05.530Z,24.9400
2023-03-20T01:00:16.590Z,24.9400
2023-03-20T01:00:27.814Z,24.9400
2023-03-20T01:00:38.911Z,24.9300
2023-03-20T01:00:50.017Z,24.9300
2023-03-20T01:01:01.119Z,24.9300
2023-03-20T01:01:12.252Z,24.9400
2023-03-20T01:01:23.330Z,24.9400
2023-03-20T01:01:34.374Z,24.9400
2023-03-20T01:01:45.431Z,24.9400
2023-03-20T01:01:56.604Z,24.9400
2023-03-20T01:02:07.721Z,24.9300
2023-03-20T01:02:18.827Z,24.9300
2023-03-20T01:02:30.100Z,24.9300
2023-03-20T01:02:41.401Z,24.9300
2023-03-20T01:02:52.407Z,24.9300
2023-03-20T01:03:03.472Z,24.9300
2023-03-20T01:03:14.531Z,24.9300
2023-03-20T01:03:25.600Z,24.9300
2023-03-20T01:03:38.563Z,24.9400
2023-03-20T01:03:51.482Z,24.9400
2023-03-20T01:04:02.533Z,24.9200
2023-03-20T01:04:13.590Z,24.9200
2023-03-20T01:04:24.642Z,24.9300
2023-03-20T01:04:35.705Z,24.9300
2023-03-20T01:04:46.736Z,24.9300
2023-03-20T01:04:57.783Z,24.9300
2023-03-20T01:05:08.858Z,24.9300
2023-03-20T01:05:19.926Z,24.9300
2023-03-20T01:05:31.038Z,24.9300
2023-03-20T01:05:42.083Z,24.9300
2023-03-20T01:05:53.161Z,24.9300
2023-03-20T01:06:04.192Z,24.9300
2023-03-20T01:06:15.257Z,24.9400
2023-03-20T01:06:26.337Z,24.9400
2023-03-20T01:06:37.402Z,24.9400
2023-03-20T01:06:48.449Z,24.9400
2023-03-20T01:06:59.530Z,24.9400
2023-03-20T01:07:10.567Z,24.9400
2023-03-20T01:07:21.646Z,24.9400
2023-03-20T01:07:32.712Z,24.9400
2023-03-20T01:07:43.792Z,24.9400
2023-03-20T01:07:54.848Z,24.9400
2023-03-20T01:08:05.890Z,24.9400
2023-03-20T01:08:16.971Z,24.9500
2023-03-20T01:08:28.005Z,24.9500
2023-03-20T01:08:39.085Z,24.9500
2023-03-20T01:08:50.157Z,24.9500
2023-03-20T01:09:01.208Z,24.9500
2023-03-20T01:09:12.270Z,24.9500
2023-03-20T01:09:23.344Z,24.9500
2023-03-20T01:09:34.399Z,24.9500
2023-03-20T01:09:45.472Z,24.9500
2023-03-20T01:09:56.553Z,24.9500
2023-03-20T01:10:07.634Z,24.9500
2023-03-20T01:10:18.687Z,24.9500
2023-03-20T01:10:29.756Z,24.9500
2023-03-20T01:10:40.848Z,24.9500
2023-03-20T01:10:51.937Z,24.9500
2023-03-20T01:11:03.004Z,24.9400
2023-03-20T01:11:14.051Z,24.9400
2023-03-20T01:11:25.121Z,24.9400
2023-03-20T01:11:36.189Z,24.9400
2023-03-20T01:11:47.247Z,24.9400
2023-03-20T01:11:58.293Z,24.9400
2023-03-20T01:12:09.373Z,24.9300
2023-03-20T01:12:20.438Z,24.9400
2023-03-20T01:12:31.509Z,24.9400
2023-03-20T01:12:42.570Z,24.9400
2023-03-20T01:12:53.647Z,24.9400
2023-03-20T01:13:04.695Z,24.9400
2023-03-20T01:13:15.756Z,24.9400
2023-03-20T01:13:26.813Z,24.9400
2023-03-20T01:13:37.879Z,24.9400
2023-03-20T01:13:48.930Z,24.9400
2023-03-20T01:14:00.004Z,24.9400
2023-03-20T01:14:11.070Z,24.9400
2023-03-20T01:14:22.134Z,24.9400
2023-03-20T01:14:33.227Z,24.9400
2023-03-20T01:14:44.283Z,24.9400
2023-03-20T01:14:55.358Z,24.9400
2023-03-20T01:15:06.421Z,24.9400
2023-03-20T01:15:17.462Z,24.9500
2023-03-20T01:15:28.514Z,24.9500
2023-03-20T01:15:39.547Z,24.9500
2023-03-20T01:15:50.655Z,24.9500
2023-03-20T01:16:01.774Z,24.9500
2023-03-20T01:16:12.941Z,24.9500
2023-03-20T01:16:23.984Z,24.9400
2023-03-20T01:16:35.096Z,24.9400
2023-03-20T01:16:46.327Z,24.9400
2023-03-20T01:16:57.427Z,24.9400
2023-03-20T01:17:08.480Z,24.9400
2023-03-20T01:17:19.579Z,24.9500
2023-03-20T01:17:30.604Z,24.9500
2023-03-20T01:17:41.665Z,24.9400
2023-03-20T01:17:52.740Z,24.9500
2023-03-20T01:18:03.792Z,24.9500
2023-03-20T01:18:14.856Z,24.9400
2023-03-20T01:18:25.893Z,24.9400
2023-03-20T01:18:36.962Z,24.9400
2023-03-20T01:18:48.006Z,24.9400
2023-03-20T01:18:59.070Z,24.9400
2023-03-20T01:19:10.133Z,24.9400
2023-03-20T01:19:21.195Z,24.9400
2023-03-20T01:19:32.273Z,24.9400
2023-03-20T01:19:43.301Z,24.9400
2023-03-20T01:19:54.331Z,24.9400
2023-03-20T01:20:05.407Z,24.9400
2023-03-20T01:20:16.477Z,24.9400
2023-03-20T01:20:27.516Z,24.9400
2023-03-20T01:20:38.593Z,24.9400
2023-03-20T01:20:49.614Z,24.9500
2023-03-20T01:21:00.710Z,24.9500
2023-03-20T01:21:11.744Z,24.9500
2023-03-20T01:21:22.815Z,24.9500
2023-03-20T01:21:33.864Z,24.9500
2023-03-20T01:21:44.954Z,24.9500
2023-03-20T01:21:56.013Z,24.9500
2023-03-20T01:22:07.083Z,24.9500
2023-03-20T01:22:18.157Z,24.9500
2023-03-20T01:22:29.305Z,24.9500
2023-03-20T01:22:40.352Z,24.9500
2023-03-20T01:22:51.389Z,24.9500
2023-03-20T01:23:02.468Z,24.9500
2023-03-20T01:23:13.504Z,24.9500
2023-03-20T01:23:24.647Z,24.9500
2023-03-20T01:23:35.712Z,24.9500
2023-03-20T01:23:46.765Z,24.9500
2023-03-20T01:23:57.829Z,24.9500
2023-03-20T01:24:08.885Z,24.9500
2023-03-20T01:24:19.946Z,24.9500
2023-03-20T01:24:31.008Z,24.9500
2023-03-20T01:24:42.052Z,24.9500
2023-03-20T01:24:53.122Z,24.9400
2023-03-20T01:25:04.165Z,24.9400
2023-03-20T01:25:15.224Z,24.9400
2023-03-20T01:25:26.278Z,24.9500
2023-03-20T01:25:37.610Z,24.9500
2023-03-20T01:25:48.975Z,24.9400
2023-03-20T01:26:00.057Z,24.9400
2023-03-20T01:26:11.133Z,24.9500
2023-03-20T01:26:22.180Z,24.9500
2023-03-20T01:26:33.241Z,24.9500
2023-03-20T01:26:44.339Z,24.9500
2023-03-20T01:26:55.388Z,24.9500
2023-03-20T01:27:06.453Z,24.9500
2023-03-20T01:27:17.516Z,24.9600
2023-03-20T01:27:28.570Z,24.9600
2023-03-20T01:27:39.622Z,24.9600
2023-03-20T01:27:50.672Z,24.9600
2023-03-20T01:28:01.718Z,24.9600
2023-03-20T01:28:12.761Z,24.9600
2023-03-20T01:28:23.824Z,24.9700
2023-03-20T01:28:34.873Z,24.9600
2023-03-20T01:28:45.917Z,24.9600
2023-03-20T01:28:56.993Z,24.9600
2023-03-20T01:29:08.030Z,24.9600
2023-03-20T01:29:19.090Z,24.9600
2023-03-20T01:29:30.144Z,24.9500
2023-03-20T01:29:41.221Z,24.9500
2023-03-20T01:29:52.296Z,24.9500
2023-03-20T01:30:03.340Z,24.9500
2023-03-20T01:30:14.408Z,24.9500
2023-03-20T01:30:25.420Z,24.9500
2023-03-20T01:30:36.482Z,24.9500
2023-03-20T01:30:47.567Z,24.9500
2023-03-20T01:30:58.607Z,24.9400
2023-03-20T01:31:09.691Z,24.9400
2023-03-20T01:31:20.864Z,24.9400
2023-03-20T01:31:31.997Z,24.9400
2023-03-20T01:31:43.100Z,24.9500
2023-03-20T01:31:54.267Z,24.9400
2023-03-20T01:32:05.427Z,24.9400
2023-03-20T01:32:16.474Z,24.9400
2023-03-20T01:32:27.561Z,24.9400
2023-03-20T01:32:38.583Z,24.9400
2023-03-20T01:32:49.725Z,24.9400
2023-03-20T01:33:00.882Z,24.9400
2023-03-20T01:33:11.948Z,24.9400
2023-03-20T01:33:23.014Z,24.9400
2023-03-20T01:33:34.061Z,24.9400
2023-03-20T01:33:45.105Z,24.9400
2023-03-20T01:33:56.159Z,24.9400
2023-03-20T01:34:07.219Z,24.9400
2023-03-20T01:34:18.264Z,24.9400
2023-03-20T01:34:29.320Z,24.9300
2023-03-20T01:34:40.405Z,24.9300
2023-03-20T01:34:51.465Z,24.9300
2023-03-20T01:35:02.492Z,24.9400
2023-03-20T01:35:13.549Z,24.9400
2023-03-20T01:35:24.620Z,24.9400
2023-03-20T01:35:36.037Z,24.9400
2023-03-20T01:35:47.368Z,24.9400
2023-03-20T01:35:58.424Z,24.9400
2023-03-20T01:36:09.492Z,24.9400
2023-03-20T01:36:20.519Z,24.9400
2023-03-20T01:36:31.616Z,24.9400
2023-03-20T01:36:42.651Z,24.9400
2023-03-20T01:36:53.712Z,24.9400
2023-03-20T01:37:04.751Z,24.9400
2023-03-20T01:37:15.842Z,24.9400
2023-03-20T01:37:26.902Z,24.9300
2023-03-20T01:37:37.969Z,24.9300
2023-03-20T01:37:49.033Z,24.9300
2023-03-20T01:38:00.107Z,24.9300
2023-03-20T01:38:11.144Z,24.9400
2023-03-20T01:38:22.184Z,24.9400
2023-03-20T01:38:33.234Z,24.9400
2023-03-20T01:38:44.291Z,24.9400
2023-03-20T01:38:55.350Z,24.9400
2023-03-20T01:39:06.404Z,24.9400
2023-03-20T01:39:17.463Z,24.9400
2023-03-20T01:39:28.507Z,24.9400
2023-03-20T01:39:39.573Z,24.9500
2023-03-20T01:39:50.683Z,24.9500
2023-03-20T01:40:01.694Z,24.9500
2023-03-20T01:40:12.751Z,24.9500
2023-03-20T01:40:23.818Z,24.9500
2023-03-20T01:40:34.880Z,24.9500
2023-03-20T01:40:45.933Z,24.9500
2023-03-20T01:40:57.001Z,24.9500
2023-03-20T01:41:08.058Z,24.9500
2023-03-20T01:41:19.127Z,24.9500
2023-03-20T01:41:30.202Z,24.9500
2023-03-20T01:41:41.263Z,24.9400
2023-03-20T01:41:52.292Z,24.9400
2023-03-20T01:42:03.371Z,24.9400
2023-03-20T01:42:14.423Z,24.9500
2023-03-20T01:42:25.499Z,24.9500
2023-03-20T01:42:36.571Z,24.9500
2023-03-20T01:42:47.631Z,24.9500
2023-03-20T01:42:58.677Z,24.9500
2023-03-20T01:43:09.726Z,24.9500
2023-03-20T01:43:20.789Z,24.9500
2023-03-20T01:43:31.850Z,24.9500
2023-03-20T01:43:42.908Z,24.9500
2023-03-20T01:43:54.017Z,24.9500
2023-03-20T01:44:05.053Z,24.9500
2023-03-20T01:44:16.093Z,24.9500
2023-03-20T01:44:27.155Z,24.9500
2023-03-20T01:44:38.221Z,24.9600
2023-03-20T01:44:49.327Z,24.9600
2023-03-20T01:45:00.389Z,24.9600
2023-03-20T01:45:11.448Z,24.9500
2023-03-20T01:45:22.491Z,24.9500
2023-03-20T01:45:33.693Z,24.9500
2023-03-20T01:45:44.863Z,24.9500
2023-03-20T01:45:55.924Z,24.9500
2023-03-20T01:46:06.993Z,24.9400
2023-03-20T01:46:18.067Z,24.9400
2023-03-20T01:46:29.245Z,24.9400
2023-03-20T01:46:40.293Z,24.9400
2023-03-20T01:46:51.379Z,24.9400
2023-03-20T01:47:02.446Z,24.9400
2023-03-20T01:47:13.501Z,24.9400
2023-03-20T01:47:24.566Z,24.9400
2023-03-20T01:47:35.660Z,24.9400
2023-03-20T01:47:46.709Z,24.9400
2023-03-20T01:47:57.753Z,24.9400
2023-03-20T01:48:08.821Z,24.9400
2023-03-20T01:48:19.860Z,24.9400
2023-03-20T01:48:30.931Z,24.9400
2023-03-20T01:48:42.002Z,24.9400
2023-03-20T01:48:53.043Z,24.9400
2023-03-20T01:49:04.091Z,24.9400
2023-03-20T01:49:15.150Z,24.9400
2023-03-20T01:49:26.171Z,24.9500
2023-03-20T01:49:37.227Z,24.9500
2023-03-20T01:49:48.306Z,24.9500
2023-03-20T01:49:59.328Z,24.9500
2023-03-20T01:50:10.380Z,24.9600
2023-03-20T01:50:21.438Z,24.9600
2023-03-20T01:50:32.514Z,24.9600
2023-03-20T01:50:43.542Z,24.9600
2023-03-20T01:50:54.594Z,24.9600
2023-03-20T01:51:05.661Z,24.9700
2023-03-20T01:51:16.719Z,24.9600
2023-03-20T01:51:27.773Z,24.9600
2023-03-20T01:51:38.836Z,24.9600
2023-03-20T01:51:49.902Z,24.9600
2023-03-20T01:52:00.994Z,24.9600
2023-03-20T01:52:12.074Z,24.9600
2023-03-20T01:52:23.123Z,24.9500
2023-03-20T01:52:34.176Z,24.9500
2023-03-20T01:52:45.223Z,24.9500
2023-03-20T01:52:56.257Z,24.9500
2023-03-20T01:53:07.298Z,24.9500
2023-03-20T01:53:18.368Z,24.9600
2023-03-20T01:53:29.413Z,24.9600
2023-03-20T01:53:40.454Z,24.9500
2023-03-20T01:53:51.524Z,24.9600
2023-03-20T01:54:02.568Z,24.9600
2023-03-20T01:54:13.616Z,24.9600
2023-03-20T01:54:24.667Z,24.9700
2023-03-20T01:54:35.724Z,24.9700
2023-03-20T01:54:46.785Z,24.9700
2023-03-20T01:54:57.843Z,24.9600
2023-03-20T01:55:08.904Z,24.9600
2023-03-20T01:55:19.971Z,24.9600
2023-03-20T01:55:31.032Z,24.9600
2023-03-20T01:55:42.109Z,24.9600
2023-03-20T01:55:53.158Z,24.9600
2023-03-20T01:56:04.211Z,24.9600
2023-03-20T01:56:15.282Z,24.9600
2023-03-20T01:56:26.363Z,24.9600
2023-03-20T01:56:37.398Z,24.9600
2023-03-20T01:56:48.454Z,24.9600
2023-03-20T01:56:59.518Z,24.9500
2023-03-20T01:57:10.575Z,24.9500
2023-03-20T01:57:21.634Z,24.9500
2023-03-20T01:57:32.675Z,24.9500
2023-03-20T01:57:43.733Z,24.9500
2023-03-20T01:57:54.805Z,24.9500
2023-03-20T01:58:05.860Z,24.9400
2023-03-20T01:58:16.928Z,24.9400
2023-03-20T01:58:27.975Z,24.9500
2023-03-20T01:58:39.012Z,24.9500
2023-03-20T01:58:50.076Z,24.9500
2023-03-20T01:59:01.124Z,24.9400
2023-03-20T01:59:12.177Z,24.9300
2023-03-20T01:59:23.248Z,24.9300
2023-03-20T01:59:34.304Z,24.9300
2023-03-20T01:59:45.351Z,24.9300
2023-03-20T01:59:56.419Z,24.9300
2023-03-20T02:00:07.492Z,24.9400
2023-03-20T02:00:18.553Z,24.9400
2023-03-20T02:00:29.607Z,24.9400
2023-03-20T02:00:40.674Z,24.9400
2023-03-20T02:00:51.814Z,24.9400
2023-03-20T02:01:02.907Z,24.9400
2023-03-20T02:01:14.054Z,24.9400
2023-03-20T02:01:25.155Z,24.9400
2023-03-20T02:01:36.275Z,24.9400
2023-03-20T02:01:47.354Z,24.9400
2023-03-20T02:01:58.422Z,24.9500
2023-03-20T02:02:09.464Z,24.9500
2023-03-20T02:02:20.563Z,24.9500
2023-03-20T02:02:31.623Z,24.9500
2023-03-20T02:02:42.700Z,24.9500
2023-03-20T02:02:53.714Z,24.9500
2023-03-20T02:03:04.786Z,24.9500
2023-03-20T02:03:15.812Z,24.9500
2023-03-20T02:03:26.874Z,24.9500
2023-03-20T02:03:37.953Z,24.9600
2023-03-20T02:03:48.989Z,24.9500
2023-03-20T02:04:00.046Z,24.9600
2023-03-20T02:04:11.108Z,24.9500
2023-03-20T02:04:22.279Z,24.9500
2023-03-20T02:04:33.341Z,24.9500
2023-03-20T02:04:44.457Z,24.9500
2023-03-20T02:04:55.582Z,24.9500
2023-03-20T02:05:06.720Z,24.9500
2023-03-20T02:05:17.794Z,24.9500
2023-03-20T02:05:28.834Z,24.9500
2023-03-20T02:05:39.900Z,24.9500
2023-03-20T02:05:50.969Z,24.9500
2023-03-20T02:06:02.021Z,24.9500
2023-03-20T02:06:13.055Z,24.9500
2023-03-20T02:06:24.104Z,24.9500
2023-03-20T02:06:35.203Z,24.9500
2023-03-20T02:06:46.243Z,24.9500
2023-03-20T02:06:57.312Z,24.9500
2023-03-20T02:07:08.373Z,24.9400
2023-03-20T02:07:19.417Z,24.9400
2023-03-20T02:07:30.513Z,24.9400
2023-03-20T02:07:41.573Z,24.9400
2023-03-20T02:07:52.616Z,24.9400
2023-03-20T02:08:03.666Z,24.9400
2023-03-20T02:08:14.722Z,24.9400
2023-03-20T02:08:25.792Z,24.9400
2023-03-20T02:08:36.855Z,24.9400
2023-03-20T02:08:47.924Z,24.9400
2023-03-20T02:08:59.046Z,24.9400
2023-03-20T02:09:10.055Z,24.9500
2023-03-20T02:09:21.124Z,24.9500
2023-03-20T02:09:32.221Z,24.9500
2023-03-20T02:09:43.275Z,24.9400
2023-03-20T02:09:54.332Z,24.9400
2023-03-20T02:10:05.427Z,24.9400
2023-03-20T02:10:16.459Z,24.9400
2023-03-20T02:10:27.527Z,24.9400
2023-03-20T02:10:38.586Z,24.9400
2023-03-20T02:10:49.633Z,24.9400
2023-03-20T02:11:00.694Z,24.9400
2023-03-20T02:11:11.792Z,24.9500
2023-03-20T02:11:22.813Z,24.9400
2023-03-20T02:11:33.866Z,24.9400
2023-03-20T02:11:44.949Z,24.9400
2023-03-20T02:11:56.012Z,24.9400
2023-03-20T02:12:07.074Z,24.9400
2023-03-20T02:12:18.123Z,24.9400
2023-03-20T02:12:29.227Z,24.9400
2023-03-20T02:12:40.316Z,24.9400
2023-03-20T02:12:51.363Z,24.9400
2023-03-20T02:13:02.438Z,24.9400
2023-03-20T02:13:13.504Z,24.9400
2023-03-20T02:13:24.568Z,24.9400
2023-03-20T02:13:35.616Z,24.9400
2023-03-20T02:13:46.648Z,24.9400
2023-03-20T02:13:57.722Z,24.9400